createdAt,value
2022-08-16T00:00:22.047Z,74.36
2022-08-16T00:01:09.325Z,74.36
2022-08-16T00:02:13.051Z,74.36
2022-08-16T00:03:13.501Z,74.46
2022-08-16T00:04:09.577Z,74.36
2022-08-16T00:05:09.255Z,74.36
2022-08-16T00:06:09.989Z,74.36
2022-08-16T00:07:09.227Z,74.36
2022-08-16T00:08:09.201Z,74.55
2022-08-16T00:09:10.732Z,74.96
2022-08-16T00:10:09.158Z,74.16
2022-08-16T00:11:15.452Z,74.26
2022-08-16T00:12:09.151Z,74.26
2022-08-16T00:13:09.112Z,74.16
2022-08-16T00:14:09.096Z,74.16
2022-08-16T00:15:11.454Z,74.36
2022-08-16T00:17:01.026Z,74.85
2022-08-16T00:17:18.749Z,74.26
2022-08-16T00:18:09.945Z,74.26
2022-08-16T00:19:09.014Z,74.22
2022-08-16T00:20:08.996Z,74.36
2022-08-16T00:21:08.987Z,75.16
2022-08-16T00:22:13.759Z,74.22
2022-08-16T00:23:08.951Z,74.26
2022-08-16T00:24:11.617Z,74.62
2022-08-16T00:25:08.935Z,74.22
2022-08-16T00:26:35.263Z,74.55
2022-08-16T00:27:08.893Z,74.55
2022-08-16T00:28:08.892Z,74.46
2022-08-16T00:29:08.855Z,74.66
2022-08-16T00:30:19.364Z,74.46
2022-08-16T00:31:08.829Z,74.26
2022-08-16T00:32:08.830Z,74.16
2022-08-16T00:33:08.790Z,74.76
2022-08-16T00:34:08.798Z,74.55
2022-08-16T00:35:13.222Z,74.85
2022-08-16T00:36:08.748Z,74.85
2022-08-16T00:37:08.728Z,74.76
2022-08-16T00:38:40.258Z,74.76
2022-08-16T00:39:08.695Z,74.85
2022-08-16T00:40:08.719Z,74.96
2022-08-16T00:41:08.669Z,74.66
2022-08-16T00:42:10.016Z,74.76
2022-08-16T00:43:12.327Z,74.85
2022-08-16T00:44:08.610Z,74.66
2022-08-16T00:45:09.334Z,74.76
2022-08-16T00:46:34.005Z,74.85
2022-08-16T00:47:08.579Z,74.66
2022-08-16T00:48:30.177Z,74.36
2022-08-16T00:49:17.507Z,74.66
2022-08-16T00:50:11.697Z,74.55
2022-08-16T00:51:08.506Z,74.46
2022-08-16T00:52:29.594Z,74.55
2022-08-16T00:53:08.470Z,74.46
2022-08-16T00:54:08.460Z,74.46
2022-08-16T00:55:08.611Z,74.96
2022-08-16T00:56:08.445Z,74.85
2022-08-16T00:57:08.410Z,74.96
2022-08-16T00:58:13.100Z,74.66
2022-08-16T00:59:08.369Z,74.76
2022-08-16T01:00:08.368Z,74.85
2022-08-16T01:01:08.826Z,74.76
2022-08-16T01:02:30.404Z,74.26
2022-08-16T01:03:11.748Z,74.85
2022-08-16T01:04:28.967Z,74.55
2022-08-16T01:05:11.505Z,74.55
2022-08-16T01:06:39.737Z,74.46
2022-08-16T01:07:08.258Z,75.09
2022-08-16T01:08:35.292Z,74.79
2022-08-16T01:09:08.545Z,74.99
2022-08-16T01:10:16.406Z,75.59
2022-08-16T01:11:08.182Z,75.89
2022-08-16T01:12:08.486Z,75.99
2022-08-16T01:13:08.148Z,76.29
2022-08-16T01:14:08.132Z,75.49
2022-08-16T01:15:08.111Z,76.99
2022-08-16T01:16:10.187Z,75.99
2022-08-16T01:17:08.499Z,76.09
2022-08-16T01:18:08.073Z,76.13
2022-08-16T01:19:08.051Z,75.89
2022-08-16T01:20:23.913Z,76.33
2022-08-16T01:21:08.026Z,76.73
2022-08-16T01:22:47.669Z,76.63
2022-08-16T01:23:08.473Z,76.63
2022-08-16T01:24:51.836Z,77.23
2022-08-16T01:25:07.963Z,77.36
2022-08-16T01:26:33.773Z,77.06
2022-08-16T01:27:07.917Z,77.03
2022-08-16T01:28:07.922Z,77.86
2022-08-16T01:29:09.957Z,77.76
2022-08-16T01:30:20.006Z,78.27
2022-08-16T01:31:07.855Z,78.17
2022-08-16T01:32:09.207Z,78.36
2022-08-16T01:33:14.630Z,78.06
2022-08-16T01:34:07.807Z,78.36
2022-08-16T01:35:07.805Z,78.47
2022-08-16T01:36:11.640Z,78.67
2022-08-16T01:37:07.756Z,78.86
2022-08-16T01:38:07.761Z,78.91
2022-08-16T01:39:07.723Z,78.91
2022-08-16T01:40:07.835Z,78.70
2022-08-16T01:41:07.689Z,79.10
2022-08-16T01:42:12.192Z,79.00
2022-08-16T01:43:09.518Z,79.30
2022-08-16T01:44:07.671Z,79.10
2022-08-16T01:45:07.626Z,78.91
2022-08-16T01:46:29.251Z,79.00
2022-08-16T01:47:07.597Z,79.10
2022-08-16T01:48:19.563Z,78.91
2022-08-16T01:49:07.581Z,79.00
2022-08-16T01:51:05.219Z,78.80
2022-08-16T01:51:08.013Z,78.70
2022-08-16T01:52:07.533Z,78.70
2022-08-16T01:53:07.495Z,78.91
2022-08-16T01:54:07.477Z,78.91
2022-08-16T01:55:07.461Z,79.00
2022-08-16T01:56:07.449Z,78.60
2022-08-16T01:57:07.425Z,78.91
2022-08-16T01:58:07.441Z,78.84
2022-08-16T01:59:07.412Z,79.00
2022-08-16T02:00:10.589Z,79.44
2022-08-16T02:01:07.412Z,79.24
2022-08-16T02:02:26.730Z,79.10
2022-08-16T02:03:07.328Z,79.04
2022-08-16T02:04:10.575Z,79.44
2022-08-16T02:05:07.296Z,79.04
2022-08-16T02:06:08.013Z,79.04
2022-08-16T02:07:07.282Z,79.54
2022-08-16T02:08:07.265Z,79.34
2022-08-16T02:09:07.267Z,79.34
2022-08-16T02:10:07.213Z,79.34
2022-08-16T02:11:07.203Z,79.44
2022-08-16T02:12:49.280Z,79.64
2022-08-16T02:13:07.675Z,79.44
2022-08-16T02:14:07.151Z,79.64
2022-08-16T02:15:07.135Z,79.74
2022-08-16T02:16:07.114Z,79.85
2022-08-16T02:17:07.114Z,79.74
2022-08-16T02:18:07.098Z,79.85
2022-08-16T02:19:16.095Z,79.54
2022-08-16T02:20:11.637Z,79.74
2022-08-16T02:21:07.047Z,79.54
2022-08-16T02:22:08.401Z,79.54
2022-08-16T02:23:06.996Z,79.64
2022-08-16T02:24:31.564Z,79.64
2022-08-16T02:25:06.981Z,79.54
2022-08-16T02:26:06.948Z,79.64
2022-08-16T02:27:06.928Z,79.54
2022-08-16T02:28:06.915Z,79.64
2022-08-16T02:29:06.903Z,79.94
2022-08-16T02:30:06.912Z,79.85
2022-08-16T02:31:06.886Z,79.78
2022-08-16T02:32:49.041Z,79.85
2022-08-16T02:33:07.203Z,80.08
2022-08-16T02:34:06.824Z,80.18
2022-08-16T02:35:06.800Z,79.74
2022-08-16T02:36:06.810Z,79.74
2022-08-16T02:37:06.770Z,79.98
2022-08-16T02:38:08.859Z,80.08
2022-08-16T02:39:06.737Z,80.08
2022-08-16T02:40:06.779Z,80.28
2022-08-16T02:41:09.547Z,80.38
2022-08-16T02:42:06.682Z,80.82
2022-08-16T02:43:06.682Z,81.12
2022-08-16T02:44:06.650Z,81.02
2022-08-16T02:45:06.655Z,81.82
2022-08-16T02:46:07.378Z,81.42
2022-08-16T02:47:06.602Z,81.32
2022-08-16T02:48:29.530Z,82.12
2022-08-16T02:49:07.229Z,81.93
2022-08-16T02:50:54.883Z,82.03
2022-08-16T02:51:11.412Z,81.52
2022-08-16T02:52:06.535Z,81.52
2022-08-16T02:53:06.503Z,81.62
2022-08-16T02:54:06.482Z,80.92
2022-08-16T02:55:06.475Z,81.62
2022-08-16T02:56:09.910Z,81.23
2022-08-16T02:57:06.456Z,81.02
2022-08-16T02:58:06.419Z,81.02
2022-08-16T02:59:11.811Z,81.42
2022-08-16T03:00:34.355Z,80.92
2022-08-16T03:01:06.391Z,80.92
2022-08-16T03:02:08.121Z,80.82
2022-08-16T03:03:10.507Z,80.72
2022-08-16T03:04:29.869Z,81.02
2022-08-16T03:05:06.301Z,80.92
2022-08-16T03:06:41.485Z,80.98
2022-08-16T03:07:06.284Z,80.82
2022-08-16T03:08:06.273Z,81.32
2022-08-16T03:09:06.382Z,80.82
2022-08-16T03:10:06.219Z,81.23
2022-08-16T03:11:06.203Z,80.92
2022-08-16T03:12:06.188Z,81.12
2022-08-16T03:13:12.340Z,81.02
2022-08-16T03:14:07.370Z,81.12
2022-08-16T03:15:06.133Z,80.92
2022-08-16T03:16:06.117Z,80.92
2022-08-16T03:17:06.097Z,81.02
2022-08-16T03:18:06.096Z,81.23
2022-08-16T03:19:06.348Z,81.12
2022-08-16T03:20:06.045Z,81.36
2022-08-16T03:21:06.035Z,81.32
2022-08-16T03:22:06.047Z,81.36
2022-08-16T03:23:05.997Z,81.62
2022-08-16T03:24:05.979Z,81.62
2022-08-16T03:25:07.385Z,81.23
2022-08-16T03:26:08.718Z,81.52
2022-08-16T03:27:05.934Z,81.32
2022-08-16T03:28:05.929Z,81.12
2022-08-16T03:29:05.899Z,81.02
2022-08-16T03:30:16.382Z,81.36
2022-08-16T03:31:05.878Z,81.52
2022-08-16T03:32:05.851Z,81.52
2022-08-16T03:33:05.831Z,81.42
2022-08-16T03:34:05.813Z,81.12
2022-08-16T03:35:05.845Z,81.32
2022-08-16T03:36:29.712Z,81.42
2022-08-16T03:37:05.761Z,81.62
2022-08-16T03:38:32.486Z,81.87
2022-08-16T03:39:05.730Z,82.26
2022-08-16T03:40:05.783Z,82.17
2022-08-16T03:41:17.108Z,82.87
2022-08-16T03:42:05.700Z,82.06
2022-08-16T03:43:20.160Z,82.17
2022-08-16T03:44:05.652Z,81.96
2022-08-16T03:45:05.630Z,82.37
2022-08-16T03:46:05.634Z,82.06
2022-08-16T03:47:10.193Z,82.26
2022-08-16T03:48:07.172Z,81.96
2022-08-16T03:49:05.560Z,81.87
2022-08-16T03:50:25.819Z,81.87
2022-08-16T03:51:05.551Z,81.87
2022-08-16T03:52:05.515Z,82.06
2022-08-16T03:53:06.070Z,82.37
2022-08-16T03:54:12.723Z,81.96
2022-08-16T03:55:05.464Z,81.26
2022-08-16T03:56:05.443Z,82.37
2022-08-16T03:57:05.443Z,82.37
2022-08-16T03:58:05.430Z,82.37
2022-08-16T03:59:05.399Z,81.96
2022-08-16T04:00:05.780Z,81.96
2022-08-16T04:01:05.415Z,81.96
2022-08-16T04:02:22.070Z,82.40
2022-08-16T04:03:05.381Z,82.40
2022-08-16T04:04:05.326Z,81.87
2022-08-16T04:05:05.292Z,82.31
2022-08-16T04:06:05.276Z,82.37
2022-08-16T04:07:06.953Z,82.26
2022-08-16T04:08:23.071Z,82.51
2022-08-16T04:09:05.242Z,82.51
2022-08-16T04:10:35.598Z,81.96
2022-08-16T04:11:05.210Z,82.40
2022-08-16T04:12:11.294Z,82.81
2022-08-16T04:13:05.321Z,82.81
2022-08-16T04:14:08.625Z,82.81
2022-08-16T04:15:07.229Z,82.90
2022-08-16T04:16:06.593Z,82.00
2022-08-16T04:17:05.092Z,82.90
2022-08-16T04:18:05.108Z,82.10
2022-08-16T04:19:05.118Z,82.10
2022-08-16T04:20:05.036Z,82.90
2022-08-16T04:21:05.018Z,82.70
2022-08-16T04:22:08.747Z,82.20
2022-08-16T04:23:04.986Z,82.60
2022-08-16T04:24:07.948Z,82.20
2022-08-16T04:25:04.955Z,82.20
2022-08-16T04:26:04.932Z,82.10
2022-08-16T04:27:04.943Z,82.40
2022-08-16T04:28:29.350Z,82.51
2022-08-16T04:29:16.562Z,82.60
2022-08-16T04:30:04.866Z,82.90
2022-08-16T04:31:04.855Z,82.75
2022-08-16T04:32:04.835Z,83.25
2022-08-16T04:33:04.841Z,83.15
2022-08-16T04:34:04.798Z,83.15
2022-08-16T04:35:08.443Z,84.05
2022-08-16T04:36:04.858Z,83.65
2022-08-16T04:37:04.767Z,83.75
2022-08-16T04:38:11.075Z,84.69
2022-08-16T04:39:04.711Z,83.69
2022-08-16T04:40:05.600Z,84.39
2022-08-16T04:41:04.684Z,84.19
2022-08-16T04:42:10.881Z,84.39
2022-08-16T04:43:04.669Z,84.69
2022-08-16T04:44:32.548Z,84.39
2022-08-16T04:45:04.611Z,84.80
2022-08-16T04:46:04.592Z,84.80
2022-08-16T04:47:21.563Z,84.29
2022-08-16T04:48:04.560Z,84.69
2022-08-16T04:49:04.565Z,84.43
2022-08-16T04:50:04.582Z,84.74
2022-08-16T04:51:11.743Z,84.94
2022-08-16T04:52:04.495Z,85.03
2022-08-16T04:53:04.492Z,84.53
2022-08-16T04:54:04.461Z,84.43
2022-08-16T04:55:04.438Z,84.49
2022-08-16T04:56:04.440Z,84.09
2022-08-16T04:57:04.438Z,84.29
2022-08-16T04:58:04.390Z,84.29
2022-08-16T04:59:04.369Z,84.29
2022-08-16T05:00:31.176Z,84.49
2022-08-16T05:01:07.870Z,83.79
2022-08-16T05:02:04.378Z,83.59
2022-08-16T05:03:07.461Z,83.99
2022-08-16T05:04:04.288Z,83.89
2022-08-16T05:05:04.285Z,83.99
2022-08-16T05:06:05.311Z,83.59
2022-08-16T05:07:04.235Z,84.09
2022-08-16T05:08:28.197Z,83.99
2022-08-16T05:09:04.208Z,84.09
2022-08-16T05:10:04.179Z,84.09
2022-08-16T05:11:05.602Z,83.85
2022-08-16T05:12:04.166Z,83.89
2022-08-16T05:13:04.157Z,83.89
2022-08-16T05:14:07.311Z,84.19
2022-08-16T05:15:06.747Z,83.89
2022-08-16T05:16:04.095Z,83.89
2022-08-16T05:17:04.072Z,84.09
2022-08-16T05:18:05.812Z,84.15
2022-08-16T05:19:04.035Z,84.25
2022-08-16T05:20:38.413Z,83.65
2022-08-16T05:21:11.166Z,83.65
2022-08-16T05:22:04.010Z,83.55
2022-08-16T05:23:03.958Z,83.55
2022-08-16T05:24:06.925Z,83.04
2022-08-16T05:25:08.764Z,83.45
2022-08-16T05:26:03.916Z,82.84
2022-08-16T05:27:11.457Z,83.31
2022-08-16T05:28:03.885Z,82.40
2022-08-16T05:29:04.663Z,82.70
2022-08-16T05:30:35.134Z,82.51
2022-08-16T05:31:03.872Z,82.70
2022-08-16T05:32:03.816Z,82.20
2022-08-16T05:33:03.836Z,82.70
2022-08-16T05:34:04.436Z,81.90
2022-08-16T05:35:03.754Z,82.70
2022-08-16T05:36:04.085Z,82.90
2022-08-16T05:37:03.722Z,82.51
2022-08-16T05:38:03.702Z,82.51
2022-08-16T05:39:03.706Z,82.37
2022-08-16T05:40:06.137Z,81.96
2022-08-16T05:41:03.660Z,82.76
2022-08-16T05:42:03.648Z,82.37
2022-08-16T05:43:03.666Z,81.52
2022-08-16T05:44:05.207Z,80.92
2022-08-16T05:45:06.784Z,80.62
2022-08-16T05:46:03.582Z,80.72
2022-08-16T05:47:03.578Z,80.28
2022-08-16T05:48:03.605Z,80.38
2022-08-16T05:49:06.042Z,80.28
2022-08-16T05:50:03.505Z,80.08
2022-08-16T05:51:03.477Z,80.28
2022-08-16T05:52:03.488Z,80.38
2022-08-16T05:53:03.455Z,80.28
2022-08-16T05:54:03.489Z,80.28
2022-08-16T05:55:03.412Z,79.98
2022-08-16T05:56:03.406Z,79.88
2022-08-16T05:57:03.385Z,79.34
2022-08-16T05:58:03.384Z,79.44
2022-08-16T05:59:03.359Z,79.34
2022-08-16T06:00:08.844Z,79.64
2022-08-16T06:01:03.427Z,79.85
2022-08-16T06:02:03.304Z,79.48
2022-08-16T06:03:05.806Z,79.44
2022-08-16T06:04:03.263Z,79.64
2022-08-16T06:05:03.257Z,79.85
2022-08-16T06:06:03.229Z,79.64
2022-08-16T06:07:06.821Z,79.54
2022-08-16T06:08:03.230Z,80.24
2022-08-16T06:09:03.205Z,79.60
2022-08-16T06:10:03.166Z,78.70
2022-08-16T06:11:10.063Z,78.74
2022-08-16T06:12:03.145Z,78.64
2022-08-16T06:13:03.129Z,78.94
2022-08-16T06:14:03.100Z,78.84
2022-08-16T06:15:04.332Z,78.84
2022-08-16T06:16:03.076Z,79.00
2022-08-16T06:17:05.504Z,79.50
2022-08-16T06:18:03.035Z,78.91
2022-08-16T06:19:04.842Z,78.60
2022-08-16T06:20:03.005Z,78.10
2022-08-16T06:21:03.003Z,78.20
2022-08-16T06:22:02.979Z,78.20
2022-08-16T06:23:11.718Z,78.06
2022-08-16T06:24:02.935Z,77.86
2022-08-16T06:25:02.923Z,77.67
2022-08-16T06:26:02.902Z,77.06
2022-08-16T06:27:02.950Z,77.06
2022-08-16T06:28:02.882Z,76.76
2022-08-16T06:29:02.876Z,77.33
2022-08-16T06:30:03.274Z,76.73
2022-08-16T06:31:02.838Z,76.43
2022-08-16T06:32:02.818Z,76.63
2022-08-16T06:33:02.793Z,76.23
2022-08-16T06:34:02.777Z,77.23
2022-08-16T06:35:03.166Z,76.83
2022-08-16T06:36:02.743Z,76.33
2022-08-16T06:37:02.739Z,76.13
2022-08-16T06:38:02.728Z,75.83
2022-08-16T06:39:06.176Z,76.23
2022-08-16T06:40:02.758Z,76.53
2022-08-16T06:41:02.668Z,76.83
2022-08-16T06:42:02.641Z,76.13
2022-08-16T06:43:02.997Z,75.89
2022-08-16T06:44:02.665Z,75.79
2022-08-16T06:45:02.590Z,76.09
2022-08-16T06:46:03.749Z,76.09
2022-08-16T06:47:02.853Z,75.79
2022-08-16T06:48:02.541Z,75.49
2022-08-16T06:49:02.539Z,75.99
2022-08-16T06:50:02.510Z,76.39
2022-08-16T06:51:02.518Z,76.29
2022-08-16T06:52:03.162Z,75.59
2022-08-16T06:53:08.339Z,76.09
2022-08-16T06:54:02.442Z,75.89
2022-08-16T06:55:02.424Z,76.09
2022-08-16T06:56:02.628Z,75.39
2022-08-16T06:57:02.397Z,75.96
2022-08-16T06:58:08.418Z,75.16
2022-08-16T06:59:02.362Z,74.96
2022-08-16T07:00:02.352Z,76.29
2022-08-16T07:01:02.408Z,75.65
2022-08-16T07:02:02.359Z,74.85
2022-08-16T07:03:02.346Z,75.96
2022-08-16T07:04:02.296Z,75.56
2022-08-16T07:05:02.278Z,75.46
2022-08-16T07:06:02.261Z,75.52
2022-08-16T07:07:02.979Z,74.92
2022-08-16T07:08:02.214Z,74.22
2022-08-16T07:09:02.219Z,74.32
2022-08-16T07:10:08.826Z,74.72
2022-08-16T07:11:02.169Z,74.52
2022-08-16T07:12:03.246Z,74.72
2022-08-16T07:13:04.162Z,74.52
2022-08-16T07:14:24.350Z,74.29
2022-08-16T07:15:02.149Z,74.08
2022-08-16T07:16:02.089Z,74.79
2022-08-16T07:17:02.071Z,74.08
2022-08-16T07:18:02.057Z,74.29
2022-08-16T07:19:02.882Z,74.29
2022-08-16T07:20:35.399Z,74.12
2022-08-16T07:21:02.482Z,74.38
2022-08-16T07:22:02.005Z,74.38
2022-08-16T07:23:02.384Z,74.58
2022-08-16T07:24:05.775Z,73.88
2022-08-16T07:25:01.979Z,73.85
2022-08-16T07:26:01.927Z,73.95
2022-08-16T07:27:01.925Z,73.85
2022-08-16T07:28:01.910Z,74.05
2022-08-16T07:29:01.886Z,73.05
2022-08-16T07:30:01.875Z,73.02
2022-08-16T07:31:01.855Z,73.11
2022-08-16T07:32:01.827Z,73.11
2022-08-16T07:33:01.812Z,73.42
2022-08-16T07:34:01.827Z,73.11
2022-08-16T07:35:01.797Z,73.11
2022-08-16T07:36:01.780Z,73.42
2022-08-16T07:37:01.747Z,72.72
2022-08-16T07:38:01.738Z,73.32
2022-08-16T07:39:01.720Z,72.78
2022-08-16T07:40:01.758Z,73.08
2022-08-16T07:41:09.347Z,72.98
2022-08-16T07:42:01.691Z,73.18
2022-08-16T07:43:01.669Z,73.14
2022-08-16T07:44:01.700Z,71.45
2022-08-16T07:45:01.627Z,71.35
2022-08-16T07:46:01.712Z,72.95
2022-08-16T07:47:01.599Z,72.45
2022-08-16T07:48:11.788Z,72.15
2022-08-16T07:49:02.612Z,71.55
2022-08-16T07:50:07.389Z,72.65
2022-08-16T07:51:06.499Z,73.14
2022-08-16T07:52:01.539Z,72.45
2022-08-16T07:53:02.102Z,72.02
2022-08-16T07:54:02.460Z,71.51
2022-08-16T07:55:01.470Z,71.02
2022-08-16T07:56:01.452Z,71.78
2022-08-16T07:57:02.186Z,71.09
2022-08-16T07:58:03.181Z,70.79
2022-08-16T07:59:01.405Z,70.79
2022-08-16T08:00:01.798Z,71.09
2022-08-16T08:01:01.449Z,70.29
2022-08-16T08:02:01.370Z,69.89
2022-08-16T08:03:01.364Z,70.19
2022-08-16T08:04:02.546Z,71.19
2022-08-16T08:05:03.489Z,71.28
2022-08-16T08:06:01.297Z,69.89
2022-08-16T08:07:01.277Z,70.19
2022-08-16T08:08:01.274Z,70.09
2022-08-16T08:09:01.247Z,70.68
2022-08-16T08:10:01.235Z,70.15
2022-08-16T08:11:08.830Z,69.96
2022-08-16T08:12:05.480Z,69.76
2022-08-16T08:13:01.208Z,69.36
2022-08-16T08:14:03.781Z,69.23
2022-08-16T08:15:01.151Z,70.32
2022-08-16T08:16:01.145Z,69.92
2022-08-16T08:17:01.607Z,69.73
2022-08-16T08:18:29.407Z,68.93
2022-08-16T08:19:02.334Z,69.20
2022-08-16T08:20:01.136Z,69.20
2022-08-16T08:21:01.061Z,68.90
2022-08-16T08:22:06.066Z,68.27
2022-08-16T08:23:01.633Z,68.90
2022-08-16T08:24:01.034Z,68.20
2022-08-16T08:25:03.743Z,67.77
2022-08-16T08:26:00.990Z,68.37
2022-08-16T08:27:00.982Z,67.97
2022-08-16T08:28:01.005Z,68.16
2022-08-16T08:29:01.223Z,67.94
2022-08-16T08:30:49.523Z,68.43
2022-08-16T08:31:02.863Z,67.83
2022-08-16T08:32:00.895Z,67.04
2022-08-16T08:33:01.174Z,66.15
2022-08-16T08:34:00.861Z,67.34
2022-08-16T08:35:03.720Z,67.04
2022-08-16T08:36:01.314Z,67.14
2022-08-16T08:37:00.813Z,66.88
2022-08-16T08:38:00.810Z,67.54
2022-08-16T08:39:00.784Z,66.94
2022-08-16T08:40:00.853Z,67.34
2022-08-16T08:41:00.767Z,67.64
2022-08-16T08:42:00.746Z,66.41
2022-08-16T08:43:11.842Z,66.41
2022-08-16T08:44:00.720Z,67.41
2022-08-16T08:45:00.700Z,67.11
2022-08-16T08:46:00.925Z,67.24
2022-08-16T08:47:01.935Z,66.45
2022-08-16T08:48:00.652Z,65.13
2022-08-16T08:49:02.368Z,64.96
2022-08-16T08:50:00.628Z,64.43
2022-08-16T08:51:00.739Z,64.53
2022-08-16T08:52:00.594Z,63.84
2022-08-16T08:53:00.613Z,63.45
2022-08-16T08:54:00.589Z,63.94
2022-08-16T08:55:00.563Z,65.00
2022-08-16T08:56:00.542Z,64.20
2022-08-16T08:57:00.519Z,63.81
2022-08-16T08:58:00.518Z,63.09
2022-08-16T08:59:04.713Z,62.62
2022-08-16T09:00:00.490Z,63.12
2022-08-16T09:01:01.309Z,62.92
2022-08-16T09:02:00.481Z,63.12
2022-08-16T09:03:04.184Z,63.39
2022-08-16T09:04:00.478Z,63.48
2022-08-16T09:05:00.431Z,62.49
2022-08-16T09:06:00.573Z,62.66
2022-08-16T09:07:01.279Z,62.07
2022-08-16T09:08:05.772Z,60.88
2022-08-16T09:09:00.354Z,60.68
2022-08-16T09:10:06.289Z,61.37
2022-08-16T09:11:03.141Z,60.88
2022-08-16T09:12:06.438Z,61.54
2022-08-16T09:13:00.298Z,60.25
2022-08-16T09:14:00.297Z,60.92
2022-08-16T09:15:00.325Z,60.42
2022-08-16T09:16:00.278Z,60.13
2022-08-16T09:17:03.467Z,60.30
2022-08-16T09:18:00.228Z,60.32
2022-08-16T09:19:04.117Z,59.41
2022-08-16T09:20:02.803Z,60.30
2022-08-16T09:21:01.954Z,58.29
2022-08-16T09:22:00.175Z,57.60
2022-08-16T09:23:00.160Z,57.01
2022-08-16T09:24:00.150Z,56.98
2022-08-16T09:25:11.198Z,57.18
2022-08-16T09:26:00.197Z,58.46
2022-08-16T09:27:00.104Z,57.07
2022-08-16T09:28:02.834Z,56.73
2022-08-16T09:29:15.089Z,56.01
2022-08-16T09:30:02.681Z,55.32
2022-08-16T09:31:00.110Z,54.68
2022-08-16T09:32:00.051Z,54.84
2022-08-16T09:33:00.031Z,54.05
2022-08-16T09:34:00.008Z,54.30
2022-08-16T09:34:59.998Z,55.02
2022-08-16T09:35:59.996Z,53.59
2022-08-16T09:37:00.374Z,53.69
2022-08-16T09:38:00.903Z,53.76
2022-08-16T09:39:00.175Z,53.66
2022-08-16T09:40:00.570Z,53.36
2022-08-16T09:40:59.971Z,53.71
2022-08-16T09:41:59.934Z,55.51
2022-08-16T09:43:00.026Z,55.41
2022-08-16T09:44:02.294Z,56.30
2022-08-16T09:45:13.190Z,55.22
2022-08-16T09:45:59.981Z,55.64
2022-08-16T09:46:59.883Z,55.02
2022-08-16T09:47:59.853Z,53.88
2022-08-16T09:48:59.826Z,52.68
2022-08-16T09:49:59.826Z,52.95
2022-08-16T09:50:59.803Z,51.25
2022-08-16T09:51:59.807Z,50.24
2022-08-16T09:52:59.803Z,49.43
2022-08-16T09:53:59.798Z,50.39
2022-08-16T09:54:59.760Z,51.20
2022-08-16T09:55:59.789Z,51.12
2022-08-16T09:56:59.765Z,51.25
2022-08-16T09:57:59.735Z,53.24
2022-08-16T09:59:05.591Z,52.95
2022-08-16T09:59:59.731Z,52.65
2022-08-16T10:01:01.002Z,51.74
2022-08-16T10:01:59.721Z,52.01
2022-08-16T10:02:59.705Z,51.52
2022-08-16T10:04:01.564Z,51.59
2022-08-16T10:04:59.765Z,53.30
2022-08-16T10:05:59.662Z,53.44
2022-08-16T10:07:59.672Z,53.47
2022-08-16T10:09:05.032Z,54.26
2022-08-16T10:09:59.623Z,55.02
2022-08-16T10:10:59.615Z,53.13
2022-08-16T10:12:11.341Z,53.00
2022-08-16T10:12:59.619Z,53.17
2022-08-16T10:13:59.602Z,52.62
2022-08-16T10:14:59.592Z,51.54
2022-08-16T10:15:59.624Z,51.57
2022-08-16T10:17:02.187Z,50.73
2022-08-16T10:18:02.060Z,49.46
2022-08-16T10:19:01.626Z,49.55
2022-08-16T10:19:59.551Z,51.40
2022-08-16T10:20:59.530Z,49.43
2022-08-16T10:21:59.507Z,49.11
2022-08-16T10:23:05.814Z,48.43
2022-08-16T10:23:59.493Z,48.62
2022-08-16T10:25:00.011Z,49.92
2022-08-16T10:27:20.422Z,49.55
2022-08-16T10:27:21.453Z,50.32
2022-08-16T10:28:27.649Z,49.92
2022-08-16T10:28:59.462Z,48.89
2022-08-16T10:30:06.395Z,51.50
2022-08-16T10:30:59.748Z,51.40
2022-08-16T10:31:59.430Z,51.28
2022-08-16T10:32:59.422Z,51.72
2022-08-16T10:33:59.428Z,51.42
2022-08-16T10:34:59.414Z,49.31
2022-08-16T10:36:03.337Z,49.46
2022-08-16T10:36:59.383Z,48.99
2022-08-16T10:37:59.381Z,47.91
2022-08-16T10:38:59.402Z,47.20
2022-08-16T10:39:59.454Z,46.88
2022-08-16T10:40:59.358Z,46.78
2022-08-16T10:41:59.373Z,46.61
2022-08-16T10:42:59.341Z,48.50
2022-08-16T10:43:59.332Z,48.94
2022-08-16T10:44:59.327Z,48.65
2022-08-16T10:46:00.172Z,48.77
2022-08-16T10:46:59.665Z,48.45
2022-08-16T10:48:03.061Z,46.75
2022-08-16T10:50:41.346Z,47.71
2022-08-16T10:52:02.346Z,45.92
2022-08-16T10:52:41.340Z,46.47
2022-08-16T10:53:41.339Z,46.08
2022-08-16T10:55:44.619Z,45.95
2022-08-16T10:56:51.492Z,44.85
2022-08-16T10:57:41.277Z,44.85
2022-08-16T10:58:41.271Z,45.15
2022-08-16T10:59:51.919Z,46.42
2022-08-16T11:00:41.251Z,45.95
2022-08-16T11:01:44.297Z,46.08
2022-08-16T11:02:57.834Z,46.37
2022-08-16T11:03:41.813Z,46.37
2022-08-16T11:05:11.431Z,45.19
2022-08-16T11:06:41.633Z,45.59
2022-08-16T11:07:43.622Z,45.90
2022-08-16T11:08:45.406Z,46.41
2022-08-16T11:09:43.818Z,45.92
2022-08-16T11:12:41.172Z,45.80
2022-08-16T11:13:58.727Z,46.39
2022-08-16T11:15:11.389Z,45.70
2022-08-16T11:15:41.898Z,44.51
2022-08-16T11:17:44.883Z,43.29
2022-08-16T11:18:49.326Z,44.78
2022-08-16T11:20:48.613Z,44.94
2022-08-16T11:22:23.225Z,45.14
2022-08-16T11:22:48.407Z,45.16
2022-08-16T11:23:56.943Z,44.45
2022-08-16T11:24:42.412Z,44.92
2022-08-16T11:26:41.056Z,44.48
2022-08-16T11:27:41.034Z,41.80
2022-08-16T11:29:41.016Z,41.17
2022-08-16T11:30:41.012Z,42.36
2022-08-16T11:31:45.604Z,43.48
2022-08-16T11:32:41.047Z,42.58
2022-08-16T11:33:56.345Z,41.99
2022-08-16T11:35:06.160Z,42.45
2022-08-16T11:35:44.468Z,44.06
2022-08-16T11:36:53.681Z,44.57
2022-08-16T11:38:51.048Z,45.92
2022-08-16T11:39:40.998Z,44.82
2022-08-16T11:40:44.499Z,44.51
2022-08-16T11:41:43.649Z,44.51
2022-08-16T11:42:40.912Z,45.34
2022-08-16T11:43:40.891Z,44.35
2022-08-16T11:44:52.829Z,45.28
2022-08-16T11:45:42.675Z,45.60
2022-08-16T11:46:44.238Z,46.78
2022-08-16T11:47:40.870Z,45.18
2022-08-16T11:48:40.854Z,45.67
2022-08-16T11:49:40.855Z,46.44
2022-08-16T11:50:40.835Z,45.45
2022-08-16T11:51:40.821Z,45.36
2022-08-16T11:52:40.828Z,45.57
2022-08-16T11:53:40.807Z,46.46
2022-08-16T11:54:40.818Z,46.19
2022-08-16T11:55:40.784Z,46.56
2022-08-16T11:56:53.259Z,45.36
2022-08-16T11:57:40.820Z,45.34
2022-08-16T11:58:40.754Z,45.31
2022-08-16T11:59:40.748Z,45.02
2022-08-16T12:00:51.469Z,45.04
2022-08-16T12:01:44.481Z,45.34
2022-08-16T12:02:45.979Z,43.86
2022-08-16T12:03:43.494Z,45.51
2022-08-16T12:04:40.785Z,43.45
2022-08-16T12:05:40.691Z,43.15
2022-08-16T12:06:40.682Z,43.94
2022-08-16T12:07:40.683Z,42.15
2022-08-16T12:08:41.341Z,42.21
2022-08-16T12:09:43.361Z,42.21
2022-08-16T12:10:40.642Z,42.19
2022-08-16T12:11:40.633Z,41.97
2022-08-16T12:12:40.639Z,42.07
2022-08-16T12:13:40.627Z,41.50
2022-08-16T12:14:40.606Z,41.52
2022-08-16T12:15:40.599Z,42.60
2022-08-16T12:16:40.587Z,42.62
2022-08-16T12:17:40.591Z,43.13
2022-08-16T12:18:40.665Z,42.74
2022-08-16T12:19:40.904Z,42.84
2022-08-16T12:20:40.557Z,42.94
2022-08-16T12:21:58.792Z,43.26
2022-08-16T12:22:40.566Z,44.55
2022-08-16T12:23:40.522Z,44.69
2022-08-16T12:24:40.520Z,45.50
2022-08-16T12:25:40.508Z,46.70
2022-08-16T12:26:40.551Z,45.92
2022-08-16T12:27:40.500Z,46.82
2022-08-16T12:28:56.183Z,45.35
2022-08-16T12:29:40.486Z,45.05
2022-08-16T12:30:40.598Z,46.84
2022-08-16T12:32:00.852Z,46.06
2022-08-16T12:32:41.922Z,46.18
2022-08-16T12:33:44.548Z,46.18
2022-08-16T12:34:50.489Z,46.97
2022-08-16T12:35:40.435Z,46.67
2022-08-16T12:36:40.468Z,46.57
2022-08-16T12:37:41.731Z,47.06
2022-08-16T12:38:45.982Z,47.38
2022-08-16T12:39:51.329Z,47.06
2022-08-16T12:40:41.892Z,46.97
2022-08-16T12:41:45.121Z,46.57
2022-08-16T12:42:40.327Z,47.16
2022-08-16T12:43:45.206Z,47.26
2022-08-16T12:44:40.307Z,48.14
2022-08-16T12:45:40.319Z,47.16
2022-08-16T12:46:40.290Z,48.35
2022-08-16T12:47:40.926Z,48.27
2022-08-16T12:48:42.355Z,48.14
2022-08-16T12:49:41.992Z,48.44
2022-08-16T12:50:40.238Z,48.03
2022-08-16T12:51:59.468Z,48.32
2022-08-16T12:52:45.138Z,48.39
2022-08-16T12:53:40.286Z,47.61
2022-08-16T12:54:40.197Z,46.03
2022-08-16T12:55:41.646Z,47.02
2022-08-16T12:56:40.190Z,47.61
2022-08-16T12:57:40.168Z,46.80
2022-08-16T12:58:48.733Z,46.68
2022-08-16T12:59:40.145Z,45.42
2022-08-16T13:00:40.275Z,45.64
2022-08-16T13:01:40.146Z,45.94
2022-08-16T13:02:40.107Z,46.55
2022-08-16T13:03:40.777Z,46.94